Anna, Ohio
Current Conditions -  °F | °C
As of 9:52 PM on Monday 22 Dec 2014 (Local Time) from KAXV Reporting Station
Broken Clouds Broken Clouds  
Wind Chill: 38°   Ceiling: 11000
Heat Index: 45°   Visibility: 10mi
Dew Point: 37°   Wind: 13mph
Humidity: 76%   Direction: 110°ESE
Pressure: 29.75"   Gusts: 16mph
Location:  40.39°N, 84.17°W
Report Text: KAXV 230252Z AUTO 11011G14KT 10SM BKN110 07/03 A2975 RMK AO2
Loading
Personal Weather Stations






























Interactive Weather Map New forecast layout! Learn more

10-Day Weather Forecast

Advertisements
Track Severe Weather on mobile